sensor_id;sensor_type;location;lat;lon;timestamp;temperature;humidity
7028;DHT22;3555;53.248;10.336;2023-02-28T00:01:12;2.10;1.00
7028;DHT22;3555;53.248;10.336;2023-02-28T00:03:39;2.10;1.00
7028;DHT22;3555;53.248;10.336;2023-02-28T00:06:07;2.10;1.00
7028;DHT22;3555;53.248;10.336;2023-02-28T00:08:35;2.10;1.00
7028;DHT22;3555;53.248;10.336;2023-02-28T00:11:04;2.20;1.00
7028;DHT22;3555;53.248;10.336;2023-02-28T00:13:33;2.20;1.00
7028;DHT22;3555;53.248;10.336;2023-02-28T00:16:01;2.20;1.00
7028;DHT22;3555;53.248;10.336;2023-02-28T00:18:28;2.10;1.00
7028;DHT22;3555;53.248;10.336;2023-02-28T00:20:56;2.00;1.00
7028;DHT22;3555;53.248;10.336;2023-02-28T00:23:23;1.90;1.00
7028;DHT22;3555;53.248;10.336;2023-02-28T00:25:51;1.80;1.00
7028;DHT22;3555;53.248;10.336;2023-02-28T00:28:19;1.60;1.00
7028;DHT22;3555;53.248;10.336;2023-02-28T00:30:47;1.50;1.00
7028;DHT22;3555;53.248;10.336;2023-02-28T00:33:14;1.40;99.90
7028;DHT22;3555;53.248;10.336;2023-02-28T00:35:41;1.40;99.90
7028;DHT22;3555;53.248;10.336;2023-02-28T00:38:07;1.40;1.00
7028;DHT22;3555;53.248;10.336;2023-02-28T00:40:34;1.50;99.90
7028;DHT22;3555;53.248;10.336;2023-02-28T00:43:01;1.50;99.90
7028;DHT22;3555;53.248;10.336;2023-02-28T00:45:30;1.60;99.90
7028;DHT22;3555;53.248;10.336;2023-02-28T00:47:57;1.50;99.90
7028;DHT22;3555;53.248;10.336;2023-02-28T00:50:24;1.50;99.90
7028;DHT22;3555;53.248;10.336;2023-02-28T00:52:51;1.60;99.90
7028;DHT22;3555;53.248;10.336;2023-02-28T00:55:18;1.80;99.90
7028;DHT22;3555;53.248;10.336;2023-02-28T00:57:45;1.60;97.70
7028;DHT22;3555;53.248;10.336;2023-02-28T01:00:13;1.60;1.00
7028;DHT22;3555;53.248;10.336;2023-02-28T01:02:41;1.50;98.00
7028;DHT22;3555;53.248;10.336;2023-02-28T01:05:08;1.50;99.90
7028;DHT22;3555;53.248;10.336;2023-02-28T01:07:35;1.40;99.90
7028;DHT22;3555;53.248;10.336;2023-02-28T01:10:02;1.40;99.90
7028;DHT22;3555;53.248;10.336;2023-02-28T01:12:29;1.40;99.90
7028;DHT22;3555;53.248;10.336;2023-02-28T01:14:55;1.50;99.90
7028;DHT22;3555;53.248;10.336;2023-02-28T01:17:22;1.30;1.00
7028;DHT22;3555;53.248;10.336;2023-02-28T01:19:53;1.30;1.00
7028;DHT22;3555;53.248;10.336;2023-02-28T01:22:20;1.30;1.00
7028;DHT22;3555;53.248;10.336;2023-02-28T01:24:47;1.20;1.00
7028;DHT22;3555;53.248;10.336;2023-02-28T01:27:14;1.20;1.00
7028;DHT22;3555;53.248;10.336;2023-02-28T01:29:41;1.20;1.00
7028;DHT22;3555;53.248;10.336;2023-02-28T01:32:07;1.20;1.00
7028;DHT22;3555;53.248;10.336;2023-02-28T01:34:34;1.20;1.00
7028;DHT22;3555;53.248;10.336;2023-02-28T01:37:03;1.20;99.90
7028;DHT22;3555;53.248;10.336;2023-02-28T01:39:30;1.30;1.00
7028;DHT22;3555;53.248;10.336;2023-02-28T01:41:56;1.20;99.90
7028;DHT22;3555;53.248;10.336;2023-02-28T01:44:59;1.20;1.00
7028;DHT22;3555;53.248;10.336;2023-02-28T01:47:29;1.20;99.90
7028;DHT22;3555;53.248;10.336;2023-02-28T01:49:57;1.20;99.90
7028;DHT22;3555;53.248;10.336;2023-02-28T01:52:26;1.20;99.90
7028;DHT22;3555;53.248;10.336;2023-02-28T01:54:56;1.20;99.90
7028;DHT22;3555;53.248;10.336;2023-02-28T01:57:27;1.20;99.90
7028;DHT22;3555;53.248;10.336;2023-02-28T01:59:57;1.10;99.90
7028;DHT22;3555;53.248;10.336;2023-02-28T02:02:26;1.10;99.90
7028;DHT22;3555;53.248;10.336;2023-02-28T02:04:56;1.10;99.90
7028;DHT22;3555;53.248;10.336;2023-02-28T02:07:26;1.10;99.90
7028;DHT22;3555;53.248;10.336;2023-02-28T02:10:05;1.10;99.90
7028;DHT22;3555;53.248;10.336;2023-02-28T02:15:25;1.10;99.90
7028;DHT22;3555;53.248;10.336;2023-02-28T02:17:57;1.10;98.30
7028;DHT22;3555;53.248;10.336;2023-02-28T02:20:46;1.10;99.90
7028;DHT22;3555;53.248;10.336;2023-02-28T02:23:40;1.00;99.90
7028;DHT22;3555;53.248;10.336;2023-02-28T02:26:33;1.00;99.90
7028;DHT22;3555;53.248;10.336;2023-02-28T02:29:30;0.90;1.00
7028;DHT22;3555;53.248;10.336;2023-02-28T02:32:22;0.90;99.90
7028;DHT22;3555;53.248;10.336;2023-02-28T02:35:01;1.00;99.90
7028;DHT22;3555;53.248;10.336;2023-02-28T02:37:38;1.00;99.90
7028;DHT22;3555;53.248;10.336;2023-02-28T02:40:13;0.90;60.70
7028;DHT22;3555;53.248;10.336;2023-02-28T02:42:45;0.90;97.90
7028;DHT22;3555;53.248;10.336;2023-02-28T02:45:17;1.00;99.90
7028;DHT22;3555;53.248;10.336;2023-02-28T02:47:46;1.10;99.90
7028;DHT22;3555;53.248;10.336;2023-02-28T02:50:17;1.10;45.80
7028;DHT22;3555;53.248;10.336;2023-02-28T02:52:49;1.10;1.00
7028;DHT22;3555;53.248;10.336;2023-02-28T02:55:18;1.10;1.00
7028;DHT22;3555;53.248;10.336;2023-02-28T02:57:49;0.90;1.00
7028;DHT22;3555;53.248;10.336;2023-02-28T03:00:20;0.80;1.00
7028;DHT22;3555;53.248;10.336;2023-02-28T03:02:51;0.70;1.00
7028;DHT22;3555;53.248;10.336;2023-02-28T03:05:25;0.40;1.00
7028;DHT22;3555;53.248;10.336;2023-02-28T03:07:52;0.10;99.90
7028;DHT22;3555;53.248;10.336;2023-02-28T03:10:33;0.10;1.00
7028;DHT22;3555;53.248;10.336;2023-02-28T03:16:16;0.20;1.00
7028;DHT22;3555;53.248;10.336;2023-02-28T03:18:53;0.20;1.00
7028;DHT22;3555;53.248;10.336;2023-02-28T03:21:27;-0.20;1.00
7028;DHT22;3555;53.248;10.336;2023-02-28T03:24:01;-0.30;99.90
7028;DHT22;3555;53.248;10.336;2023-02-28T03:26:31;0.50;1.00
7028;DHT22;3555;53.248;10.336;2023-02-28T03:29:04;-0.20;1.00
7028;DHT22;3555;53.248;10.336;2023-02-28T03:31:35;-0.20;1.00
7028;DHT22;3555;53.248;10.336;2023-02-28T03:34:06;-0.10;99.90
7028;DHT22;3555;53.248;10.336;2023-02-28T03:36:38;-0.10;99.90
7028;DHT22;3555;53.248;10.336;2023-02-28T03:39:12;-0.20;1.00
7028;DHT22;3555;53.248;10.336;2023-02-28T03:41:43;-0.70;99.90
7028;DHT22;3555;53.248;10.336;2023-02-28T03:44:16;-0.80;99.90
7028;DHT22;3555;53.248;10.336;2023-02-28T03:46:51;-0.80;99.90
7028;DHT22;3555;53.248;10.336;2023-02-28T03:49:23;-0.80;99.90
7028;DHT22;3555;53.248;10.336;2023-02-28T03:51:53;-0.60;99.90
7028;DHT22;3555;53.248;10.336;2023-02-28T03:54:25;-0.40;1.00
7028;DHT22;3555;53.248;10.336;2023-02-28T03:56:58;-0.30;17.20
7028;DHT22;3555;53.248;10.336;2023-02-28T03:59:28;-0.30;57.60
7028;DHT22;3555;53.248;10.336;2023-02-28T04:01:57;-0.40;35.80
7028;DHT22;3555;53.248;10.336;2023-02-28T04:04:25;-0.30;1.00
7028;DHT22;3555;53.248;10.336;2023-02-28T04:07:01;-0.20;1.00
7028;DHT22;3555;53.248;10.336;2023-02-28T04:09:28;-0.30;1.00
7028;DHT22;3555;53.248;10.336;2023-02-28T04:11:55;-0.30;1.00
7028;DHT22;3555;53.248;10.336;2023-02-28T04:14:22;-0.20;1.00
7028;DHT22;3555;53.248;10.336;2023-02-28T04:16:49;-0.20;1.00
7028;DHT22;3555;53.248;10.336;2023-02-28T04:19:17;-0.30;1.00
7028;DHT22;3555;53.248;10.336;2023-02-28T04:21:46;-0.30;1.00
7028;DHT22;3555;53.248;10.336;2023-02-28T04:24:16;-0.30;1.00
7028;DHT22;3555;53.248;10.336;2023-02-28T04:26:45;-0.30;1.00
7028;DHT22;3555;53.248;10.336;2023-02-28T04:29:12;-0.30;1.00
7028;DHT22;3555;53.248;10.336;2023-02-28T04:31:40;-0.20;1.00
7028;DHT22;3555;53.248;10.336;2023-02-28T04:34:07;-0.20;1.00
7028;DHT22;3555;53.248;10.336;2023-02-28T04:36:34;-0.20;99.90
7028;DHT22;3555;53.248;10.336;2023-02-28T04:39:01;-0.20;99.90
7028;DHT22;3555;53.248;10.336;2023-02-28T04:41:30;-0.30;99.90
7028;DHT22;3555;53.248;10.336;2023-02-28T04:43:57;-0.30;99.90
7028;DHT22;3555;53.248;10.336;2023-02-28T04:46:24;-0.50;99.90
7028;DHT22;3555;53.248;10.336;2023-02-28T04:48:51;-0.80;99.90
7028;DHT22;3555;53.248;10.336;2023-02-28T04:51:19;-1.10;99.90
7028;DHT22;3555;53.248;10.336;2023-02-28T04:53:46;-1.00;1.00
7028;DHT22;3555;53.248;10.336;2023-02-28T04:56:15;-1.00;1.00
7028;DHT22;3555;53.248;10.336;2023-02-28T04:58:44;-0.90;99.90
7028;DHT22;3555;53.248;10.336;2023-02-28T05:01:22;-0.80;99.90
7028;DHT22;3555;53.248;10.336;2023-02-28T05:03:49;-0.90;1.00
7028;DHT22;3555;53.248;10.336;2023-02-28T05:06:17;-0.70;19.60
7028;DHT22;3555;53.248;10.336;2023-02-28T05:08:44;-0.60;1.00
7028;DHT22;3555;53.248;10.336;2023-02-28T05:11:16;-0.50;1.00
7028;DHT22;3555;53.248;10.336;2023-02-28T05:13:44;-0.60;99.90
7028;DHT22;3555;53.248;10.336;2023-02-28T05:16:11;-0.60;99.90
7028;DHT22;3555;53.248;10.336;2023-02-28T05:18:38;-0.70;99.90
7028;DHT22;3555;53.248;10.336;2023-02-28T05:21:05;-0.70;99.90
7028;DHT22;3555;53.248;10.336;2023-02-28T05:23:32;-0.70;99.90
7028;DHT22;3555;53.248;10.336;2023-02-28T05:25:59;-0.70;99.90
7028;DHT22;3555;53.248;10.336;2023-02-28T05:28:26;-0.80;99.90
7028;DHT22;3555;53.248;10.336;2023-02-28T05:30:54;-0.80;99.90
7028;DHT22;3555;53.248;10.336;2023-02-28T05:33:21;-0.80;99.90
7028;DHT22;3555;53.248;10.336;2023-02-28T05:35:48;-0.80;99.90
7028;DHT22;3555;53.248;10.336;2023-02-28T05:38:15;-0.90;99.90
7028;DHT22;3555;53.248;10.336;2023-02-28T05:40:43;-0.80;99.90
7028;DHT22;3555;53.248;10.336;2023-02-28T05:43:10;-0.90;99.90
7028;DHT22;3555;53.248;10.336;2023-02-28T05:45:37;-0.80;1.00
7028;DHT22;3555;53.248;10.336;2023-02-28T05:48:06;-0.90;99.90
7028;DHT22;3555;53.248;10.336;2023-02-28T05:50:34;-0.90;99.90
7028;DHT22;3555;53.248;10.336;2023-02-28T05:53:01;-1.00;1.00
7028;DHT22;3555;53.248;10.336;2023-02-28T05:55:28;-0.90;1.00
7028;DHT22;3555;53.248;10.336;2023-02-28T05:57:55;-0.90;99.90
7028;DHT22;3555;53.248;10.336;2023-02-28T06:00:22;-1.10;99.90
7028;DHT22;3555;53.248;10.336;2023-02-28T06:02:49;-1.20;1.00
7028;DHT22;3555;53.248;10.336;2023-02-28T06:05:18;-1.10;1.00
7028;DHT22;3555;53.248;10.336;2023-02-28T06:07:45;-1.10;1.00
7028;DHT22;3555;53.248;10.336;2023-02-28T06:10:12;-1.10;1.00
7028;DHT22;3555;53.248;10.336;2023-02-28T06:12:40;-1.20;99.90
7028;DHT22;3555;53.248;10.336;2023-02-28T06:15:10;-1.20;1.00
7028;DHT22;3555;53.248;10.336;2023-02-28T06:17:38;-1.20;1.00
7028;DHT22;3555;53.248;10.336;2023-02-28T06:20:06;-1.20;1.00
7028;DHT22;3555;53.248;10.336;2023-02-28T06:22:35;-1.20;1.00
7028;DHT22;3555;53.248;10.336;2023-02-28T06:25:02;-1.10;1.00
7028;DHT22;3555;53.248;10.336;2023-02-28T06:27:30;-1.30;1.00
7028;DHT22;3555;53.248;10.336;2023-02-28T06:29:57;-1.20;1.00
7028;DHT22;3555;53.248;10.336;2023-02-28T06:32:24;-1.30;1.00
7028;DHT22;3555;53.248;10.336;2023-02-28T06:34:51;-1.30;1.00
7028;DHT22;3555;53.248;10.336;2023-02-28T06:37:18;-1.30;1.00
7028;DHT22;3555;53.248;10.336;2023-02-28T06:39:46;-1.30;1.00
7028;DHT22;3555;53.248;10.336;2023-02-28T06:42:13;-1.20;1.00
7028;DHT22;3555;53.248;10.336;2023-02-28T06:44:40;-1.20;1.00
7028;DHT22;3555;53.248;10.336;2023-02-28T06:47:08;-1.20;1.00
7028;DHT22;3555;53.248;10.336;2023-02-28T06:49:36;-1.10;1.00
7028;DHT22;3555;53.248;10.336;2023-02-28T06:52:04;-1.10;1.00
7028;DHT22;3555;53.248;10.336;2023-02-28T06:54:31;-1.20;1.00
7028;DHT22;3555;53.248;10.336;2023-02-28T06:56:59;-1.60;36.50
7028;DHT22;3555;53.248;10.336;2023-02-28T06:59:26;-1.80;1.00
7028;DHT22;3555;53.248;10.336;2023-02-28T07:01:53;-1.90;1.00
7028;DHT22;3555;53.248;10.336;2023-02-28T07:04:20;-2.10;1.00
7028;DHT22;3555;53.248;10.336;2023-02-28T07:06:47;-1.80;99.90
7028;DHT22;3555;53.248;10.336;2023-02-28T07:09:14;-1.60;18.90
7028;DHT22;3555;53.248;10.336;2023-02-28T07:11:41;-1.50;99.90
7028;DHT22;3555;53.248;10.336;2023-02-28T07:14:10;-1.20;1.00
7028;DHT22;3555;53.248;10.336;2023-02-28T07:16:37;-1.10;1.00
7028;DHT22;3555;53.248;10.336;2023-02-28T07:19:04;-0.80;1.00
7028;DHT22;3555;53.248;10.336;2023-02-28T07:21:31;-0.40;1.00
7028;DHT22;3555;53.248;10.336;2023-02-28T07:23:58;-0.10;1.00
7028;DHT22;3555;53.248;10.336;2023-02-28T07:26:24;0.30;1.00
7028;DHT22;3555;53.248;10.336;2023-02-28T07:28:51;0.70;1.00
7028;DHT22;3555;53.248;10.336;2023-02-28T07:31:20;1.10;1.00
7028;DHT22;3555;53.248;10.336;2023-02-28T07:33:46;1.60;99.90
7028;DHT22;3555;53.248;10.336;2023-02-28T07:36:15;2.00;19.80
7028;DHT22;3555;53.248;10.336;2023-02-28T07:38:45;2.40;1.00
7028;DHT22;3555;53.248;10.336;2023-02-28T07:41:13;2.80;99.90
7028;DHT22;3555;53.248;10.336;2023-02-28T07:43:40;3.00;99.90
7028;DHT22;3555;53.248;10.336;2023-02-28T07:46:09;3.30;99.90
7028;DHT22;3555;53.248;10.336;2023-02-28T07:48:37;3.60;93.10
7028;DHT22;3555;53.248;10.336;2023-02-28T07:51:05;4.00;1.00
7028;DHT22;3555;53.248;10.336;2023-02-28T07:53:32;4.20;1.00
7028;DHT22;3555;53.248;10.336;2023-02-28T07:56:00;4.40;1.00
7028;DHT22;3555;53.248;10.336;2023-02-28T07:58:28;4.70;1.00
7028;DHT22;3555;53.248;10.336;2023-02-28T08:00:56;4.90;1.00
7028;DHT22;3555;53.248;10.336;2023-02-28T08:03:24;5.10;1.00
7028;DHT22;3555;53.248;10.336;2023-02-28T08:05:52;5.40;1.00
7028;DHT22;3555;53.248;10.336;2023-02-28T08:08:19;5.60;99.90
7028;DHT22;3555;53.248;10.336;2023-02-28T08:10:46;5.80;99.90
7028;DHT22;3555;53.248;10.336;2023-02-28T08:13:13;5.90;99.90
7028;DHT22;3555;53.248;10.336;2023-02-28T08:15:40;6.00;99.90
7028;DHT22;3555;53.248;10.336;2023-02-28T08:18:08;6.20;99.90
7028;DHT22;3555;53.248;10.336;2023-02-28T08:20:35;6.40;99.90
7028;DHT22;3555;53.248;10.336;2023-02-28T08:23:03;6.50;99.90
7028;DHT22;3555;53.248;10.336;2023-02-28T08:25:30;6.70;99.90
7028;DHT22;3555;53.248;10.336;2023-02-28T08:27:57;6.80;99.90
7028;DHT22;3555;53.248;10.336;2023-02-28T08:30:23;7.10;99.90
7028;DHT22;3555;53.248;10.336;2023-02-28T08:32:50;7.20;99.90
7028;DHT22;3555;53.248;10.336;2023-02-28T08:35:20;7.40;99.90
7028;DHT22;3555;53.248;10.336;2023-02-28T08:37:47;7.60;99.90
7028;DHT22;3555;53.248;10.336;2023-02-28T08:40:16;7.70;99.90
7028;DHT22;3555;53.248;10.336;2023-02-28T08:42:45;7.70;69.90
7028;DHT22;3555;53.248;10.336;2023-02-28T08:45:13;7.80;99.90
7028;DHT22;3555;53.248;10.336;2023-02-28T08:47:40;8.00;38.80
7028;DHT22;3555;53.248;10.336;2023-02-28T08:50:11;8.10;36.20
7028;DHT22;3555;53.248;10.336;2023-02-28T08:52:42;8.30;14.90
7028;DHT22;3555;53.248;10.336;2023-02-28T08:55:09;8.40;32.50
7028;DHT22;3555;53.248;10.336;2023-02-28T08:57:37;8.50;1.00
7028;DHT22;3555;53.248;10.336;2023-02-28T09:00:05;8.60;1.00
7028;DHT22;3555;53.248;10.336;2023-02-28T09:02:33;8.70;1.00
7028;DHT22;3555;53.248;10.336;2023-02-28T09:05:00;8.90;1.00
7028;DHT22;3555;53.248;10.336;2023-02-28T09:07:27;9.10;1.00
7028;DHT22;3555;53.248;10.336;2023-02-28T09:09:54;9.20;1.00
7028;DHT22;3555;53.248;10.336;2023-02-28T09:12:21;9.30;1.00
7028;DHT22;3555;53.248;10.336;2023-02-28T09:14:49;9.50;1.00
7028;DHT22;3555;53.248;10.336;2023-02-28T09:17:17;9.60;1.00
7028;DHT22;3555;53.248;10.336;2023-02-28T09:19:47;9.60;1.00
7028;DHT22;3555;53.248;10.336;2023-02-28T09:22:14;9.80;1.00
7028;DHT22;3555;53.248;10.336;2023-02-28T09:24:42;9.90;1.00
7028;DHT22;3555;53.248;10.336;2023-02-28T09:27:10;10.00;1.00
7028;DHT22;3555;53.248;10.336;2023-02-28T09:29:36;10.10;1.00
7028;DHT22;3555;53.248;10.336;2023-02-28T09:32:05;10.10;1.00
7028;DHT22;3555;53.248;10.336;2023-02-28T09:34:32;10.10;1.00
7028;DHT22;3555;53.248;10.336;2023-02-28T09:36:59;10.20;1.00
7028;DHT22;3555;53.248;10.336;2023-02-28T09:39:26;10.00;1.00
7028;DHT22;3555;53.248;10.336;2023-02-28T09:41:55;10.20;1.00
7028;DHT22;3555;53.248;10.336;2023-02-28T09:44:26;10.40;1.00
7028;DHT22;3555;53.248;10.336;2023-02-28T09:46:57;10.50;1.00
7028;DHT22;3555;53.248;10.336;2023-02-28T09:49:35;10.70;1.00
7028;DHT22;3555;53.248;10.336;2023-02-28T09:52:05;10.80;1.00
7028;DHT22;3555;53.248;10.336;2023-02-28T09:54:36;11.00;1.00
7028;DHT22;3555;53.248;10.336;2023-02-28T09:57:07;11.10;1.00
7028;DHT22;3555;53.248;10.336;2023-02-28T09:59:50;11.40;1.00
7028;DHT22;3555;53.248;10.336;2023-02-28T10:02:46;11.00;1.00
7028;DHT22;3555;53.248;10.336;2023-02-28T10:05:20;10.70;1.00
7028;DHT22;3555;53.248;10.336;2023-02-28T10:08:02;10.80;1.00
7028;DHT22;3555;53.248;10.336;2023-02-28T10:10:36;10.80;1.00
7028;DHT22;3555;53.248;10.336;2023-02-28T10:13:06;10.70;1.00
7028;DHT22;3555;53.248;10.336;2023-02-28T10:15:39;10.10;1.00
7028;DHT22;3555;53.248;10.336;2023-02-28T10:18:12;9.50;1.00
7028;DHT22;3555;53.248;10.336;2023-02-28T10:20:42;9.70;1.00
7028;DHT22;3555;53.248;10.336;2023-02-28T10:23:13;9.90;1.00
7028;DHT22;3555;53.248;10.336;2023-02-28T10:25:43;9.70;1.00
7028;DHT22;3555;53.248;10.336;2023-02-28T10:28:15;9.70;1.00
7028;DHT22;3555;53.248;10.336;2023-02-28T10:30:45;9.80;1.00
7028;DHT22;3555;53.248;10.336;2023-02-28T10:33:19;10.00;1.00
7028;DHT22;3555;53.248;10.336;2023-02-28T10:35:48;9.70;1.00
7028;DHT22;3555;53.248;10.336;2023-02-28T10:38:18;9.50;1.00
7028;DHT22;3555;53.248;10.336;2023-02-28T10:40:45;9.90;1.00
7028;DHT22;3555;53.248;10.336;2023-02-28T10:43:21;9.80;1.00
7028;DHT22;3555;53.248;10.336;2023-02-28T10:46:15;9.80;1.00
7028;DHT22;3555;53.248;10.336;2023-02-28T10:49:01;9.70;1.00
7028;DHT22;3555;53.248;10.336;2023-02-28T10:51:37;10.10;1.00
7028;DHT22;3555;53.248;10.336;2023-02-28T10:54:04;10.40;1.00
7028;DHT22;3555;53.248;10.336;2023-02-28T10:56:31;10.60;1.00
7028;DHT22;3555;53.248;10.336;2023-02-28T10:59:00;9.90;1.00
7028;DHT22;3555;53.248;10.336;2023-02-28T11:01:39;9.10;1.00
7028;DHT22;3555;53.248;10.336;2023-02-28T11:04:17;8.90;1.00
7028;DHT22;3555;53.248;10.336;2023-02-28T11:06:56;9.30;1.00
7028;DHT22;3555;53.248;10.336;2023-02-28T11:09:28;9.70;1.00
7028;DHT22;3555;53.248;10.336;2023-02-28T11:11:55;10.10;1.00
7028;DHT22;3555;53.248;10.336;2023-02-28T11:14:25;9.90;1.00
7028;DHT22;3555;53.248;10.336;2023-02-28T11:16:53;9.90;1.00
7028;DHT22;3555;53.248;10.336;2023-02-28T11:19:23;10.00;1.00
7028;DHT22;3555;53.248;10.336;2023-02-28T11:21:55;10.10;1.00
7028;DHT22;3555;53.248;10.336;2023-02-28T11:24:25;10.30;1.00
7028;DHT22;3555;53.248;10.336;2023-02-28T11:26:54;10.30;1.00
7028;DHT22;3555;53.248;10.336;2023-02-28T11:29:22;10.60;1.00
7028;DHT22;3555;53.248;10.336;2023-02-28T11:34:59;11.00;1.00
7028;DHT22;3555;53.248;10.336;2023-02-28T11:37:28;11.10;1.00
7028;DHT22;3555;53.248;10.336;2023-02-28T11:39:55;11.00;1.00
7028;DHT22;3555;53.248;10.336;2023-02-28T11:42:41;10.40;1.00
7028;DHT22;3555;53.248;10.336;2023-02-28T11:45:28;10.50;1.00
7028;DHT22;3555;53.248;10.336;2023-02-28T11:48:08;10.40;1.00
7028;DHT22;3555;53.248;10.336;2023-02-28T11:50:47;10.40;1.00
7028;DHT22;3555;53.248;10.336;2023-02-28T11:53:22;10.50;1.00
7028;DHT22;3555;53.248;10.336;2023-02-28T11:55:58;10.30;1.00
7028;DHT22;3555;53.248;10.336;2023-02-28T11:58:37;10.40;1.00
7028;DHT22;3555;53.248;10.336;2023-02-28T12:01:18;10.00;1.00
7028;DHT22;3555;53.248;10.336;2023-02-28T12:03:58;9.50;1.00
7028;DHT22;3555;53.248;10.336;2023-02-28T12:06:30;9.10;1.00
7028;DHT22;3555;53.248;10.336;2023-02-28T12:09:09;9.30;1.00
7028;DHT22;3555;53.248;10.336;2023-02-28T12:11:47;9.70;1.00
7028;DHT22;3555;53.248;10.336;2023-02-28T12:14:30;10.20;1.00
7028;DHT22;3555;53.248;10.336;2023-02-28T12:17:11;10.70;1.00
7028;DHT22;3555;53.248;10.336;2023-02-28T12:19:45;10.70;1.00
7028;DHT22;3555;53.248;10.336;2023-02-28T12:22:25;11.00;1.00
7028;DHT22;3555;53.248;10.336;2023-02-28T12:28:06;11.10;1.00
7028;DHT22;3555;53.248;10.336;2023-02-28T12:30:37;11.30;1.00
7028;DHT22;3555;53.248;10.336;2023-02-28T12:33:07;11.10;1.00
7028;DHT22;3555;53.248;10.336;2023-02-28T12:35:38;11.00;1.00
7028;DHT22;3555;53.248;10.336;2023-02-28T12:38:13;11.10;1.00
7028;DHT22;3555;53.248;10.336;2023-02-28T12:40:45;10.80;1.00
7028;DHT22;3555;53.248;10.336;2023-02-28T12:43:16;10.40;1.00
7028;DHT22;3555;53.248;10.336;2023-02-28T12:45:46;10.10;1.00
7028;DHT22;3555;53.248;10.336;2023-02-28T12:48:17;10.10;1.00
7028;DHT22;3555;53.248;10.336;2023-02-28T12:50:47;10.20;1.00
7028;DHT22;3555;53.248;10.336;2023-02-28T12:53:18;10.50;1.00
7028;DHT22;3555;53.248;10.336;2023-02-28T12:56:05;10.90;1.00
7028;DHT22;3555;53.248;10.336;2023-02-28T12:58:38;11.30;1.00
7028;DHT22;3555;53.248;10.336;2023-02-28T13:01:34;11.60;1.00
7028;DHT22;3555;53.248;10.336;2023-02-28T13:04:31;11.20;1.00
7028;DHT22;3555;53.248;10.336;2023-02-28T13:07:40;11.30;1.00
7028;DHT22;3555;53.248;10.336;2023-02-28T13:10:10;10.80;1.00
7028;DHT22;3555;53.248;10.336;2023-02-28T13:12:48;10.90;1.00
7028;DHT22;3555;53.248;10.336;2023-02-28T13:15:20;11.10;1.00
7028;DHT22;3555;53.248;10.336;2023-02-28T13:17:51;11.10;1.00
7028;DHT22;3555;53.248;10.336;2023-02-28T13:20:20;11.10;1.00
7028;DHT22;3555;53.248;10.336;2023-02-28T13:22:49;11.10;1.00
7028;DHT22;3555;53.248;10.336;2023-02-28T13:25:52;11.30;1.00
7028;DHT22;3555;53.248;10.336;2023-02-28T13:34:40;10.90;1.00
7028;DHT22;3555;53.248;10.336;2023-02-28T13:37:33;10.60;1.00
7028;DHT22;3555;53.248;10.336;2023-02-28T13:40:29;10.50;1.00
7028;DHT22;3555;53.248;10.336;2023-02-28T13:43:02;10.40;1.00
7028;DHT22;3555;53.248;10.336;2023-02-28T13:45:29;10.40;1.00
7028;DHT22;3555;53.248;10.336;2023-02-28T13:48:04;10.40;1.00
7028;DHT22;3555;53.248;10.336;2023-02-28T13:50:41;10.60;1.00
7028;DHT22;3555;53.248;10.336;2023-02-28T13:56:39;10.20;1.00
7028;DHT22;3555;53.248;10.336;2023-02-28T13:59:19;9.70;1.00
7028;DHT22;3555;53.248;10.336;2023-02-28T14:02:25;9.50;1.00
7028;DHT22;3555;53.248;10.336;2023-02-28T14:05:02;9.20;1.00
7028;DHT22;3555;53.248;10.336;2023-02-28T14:07:38;8.90;1.00
7028;DHT22;3555;53.248;10.336;2023-02-28T14:10:15;8.70;1.00
7028;DHT22;3555;53.248;10.336;2023-02-28T14:12:59;8.40;1.00
7028;DHT22;3555;53.248;10.336;2023-02-28T14:15:35;8.20;1.00
7028;DHT22;3555;53.248;10.336;2023-02-28T14:18:05;8.50;1.00
7028;DHT22;3555;53.248;10.336;2023-02-28T14:20:40;8.90;1.00
7028;DHT22;3555;53.248;10.336;2023-02-28T14:23:14;9.20;1.00
7028;DHT22;3555;53.248;10.336;2023-02-28T14:25:48;9.30;1.00
7028;DHT22;3555;53.248;10.336;2023-02-28T14:28:41;9.20;1.00
7028;DHT22;3555;53.248;10.336;2023-02-28T14:31:13;9.30;1.00
7028;DHT22;3555;53.248;10.336;2023-02-28T14:33:57;9.30;1.00
7028;DHT22;3555;53.248;10.336;2023-02-28T14:36:30;9.60;1.00
7028;DHT22;3555;53.248;10.336;2023-02-28T14:39:00;9.00;1.00
7028;DHT22;3555;53.248;10.336;2023-02-28T14:41:30;8.50;1.00
7028;DHT22;3555;53.248;10.336;2023-02-28T14:44:12;8.90;1.00
7028;DHT22;3555;53.248;10.336;2023-02-28T14:46:40;9.00;1.00
7028;DHT22;3555;53.248;10.336;2023-02-28T14:49:15;9.10;1.00
7028;DHT22;3555;53.248;10.336;2023-02-28T14:51:43;9.10;1.00
7028;DHT22;3555;53.248;10.336;2023-02-28T14:54:14;8.80;1.00
7028;DHT22;3555;53.248;10.336;2023-02-28T14:56:42;8.90;1.00
7028;DHT22;3555;53.248;10.336;2023-02-28T14:59:25;8.80;1.00
7028;DHT22;3555;53.248;10.336;2023-02-28T15:04:34;8.40;1.00
7028;DHT22;3555;53.248;10.336;2023-02-28T15:07:08;8.60;1.00
7028;DHT22;3555;53.248;10.336;2023-02-28T15:09:35;8.70;1.00
7028;DHT22;3555;53.248;10.336;2023-02-28T15:12:01;9.10;1.00
7028;DHT22;3555;53.248;10.336;2023-02-28T15:14:30;9.50;1.00
7028;DHT22;3555;53.248;10.336;2023-02-28T15:17:00;10.10;1.00
7028;DHT22;3555;53.248;10.336;2023-02-28T15:19:30;9.90;1.00
7028;DHT22;3555;53.248;10.336;2023-02-28T15:22:01;9.90;1.00
7028;DHT22;3555;53.248;10.336;2023-02-28T15:24:35;10.20;1.00
7028;DHT22;3555;53.248;10.336;2023-02-28T15:27:05;10.50;1.00
7028;DHT22;3555;53.248;10.336;2023-02-28T15:29:44;10.40;1.00
7028;DHT22;3555;53.248;10.336;2023-02-28T15:32:24;10.10;1.00
7028;DHT22;3555;53.248;10.336;2023-02-28T15:34:52;10.00;1.00
7028;DHT22;3555;53.248;10.336;2023-02-28T15:37:39;10.00;1.00
7028;DHT22;3555;53.248;10.336;2023-02-28T15:40:14;9.10;1.00
7028;DHT22;3555;53.248;10.336;2023-02-28T15:42:42;9.60;1.00
7028;DHT22;3555;53.248;10.336;2023-02-28T15:45:31;8.90;1.00
7028;DHT22;3555;53.248;10.336;2023-02-28T15:48:00;8.50;1.00
7028;DHT22;3555;53.248;10.336;2023-02-28T15:50:28;8.60;1.00
7028;DHT22;3555;53.248;10.336;2023-02-28T15:52:56;8.80;1.00
7028;DHT22;3555;53.248;10.336;2023-02-28T15:55:26;9.10;1.00
7028;DHT22;3555;53.248;10.336;2023-02-28T15:57:55;8.90;1.00
7028;DHT22;3555;53.248;10.336;2023-02-28T16:00:26;8.60;1.00
7028;DHT22;3555;53.248;10.336;2023-02-28T16:02:54;8.20;1.00
7028;DHT22;3555;53.248;10.336;2023-02-28T16:05:24;8.10;1.00
7028;DHT22;3555;53.248;10.336;2023-02-28T16:07:56;8.00;1.00
7028;DHT22;3555;53.248;10.336;2023-02-28T16:10:25;8.00;1.00
7028;DHT22;3555;53.248;10.336;2023-02-28T16:12:54;8.00;1.00
7028;DHT22;3555;53.248;10.336;2023-02-28T16:15:23;8.40;1.00
7028;DHT22;3555;53.248;10.336;2023-02-28T16:17:51;8.40;1.00
7028;DHT22;3555;53.248;10.336;2023-02-28T16:20:22;8.60;1.00
7028;DHT22;3555;53.248;10.336;2023-02-28T16:22:49;8.60;1.00
7028;DHT22;3555;53.248;10.336;2023-02-28T16:25:18;8.70;1.00
7028;DHT22;3555;53.248;10.336;2023-02-28T16:27:48;8.90;1.00
7028;DHT22;3555;53.248;10.336;2023-02-28T16:30:19;9.10;1.00
7028;DHT22;3555;53.248;10.336;2023-02-28T16:32:47;9.30;1.00
7028;DHT22;3555;53.248;10.336;2023-02-28T16:35:15;9.50;1.00
7028;DHT22;3555;53.248;10.336;2023-02-28T16:37:44;9.70;1.00
7028;DHT22;3555;53.248;10.336;2023-02-28T16:40:14;9.60;1.00
7028;DHT22;3555;53.248;10.336;2023-02-28T16:42:42;9.60;1.00
7028;DHT22;3555;53.248;10.336;2023-02-28T16:45:15;9.70;1.00
7028;DHT22;3555;53.248;10.336;2023-02-28T16:47:42;9.90;1.00
7028;DHT22;3555;53.248;10.336;2023-02-28T16:50:14;10.10;1.00
7028;DHT22;3555;53.248;10.336;2023-02-28T16:52:41;10.20;1.00
7028;DHT22;3555;53.248;10.336;2023-02-28T16:55:10;10.40;1.00